Time,TemperatureF,DewpointF,PressureIn,WindDirection,WindDirectionDegrees,WindSpeedMPH,WindSpeedGustMPH,Humidity,HourlyPrecipIn,Conditions,Clouds,dailyrainin,SoftwareType,DateUTC
2012-07-27 00:00:00,74.8,73.6,30.03,West,280,3.6,5.4,96,0.31,,,0.00,VWS V13.01,2012-07-27 05:00:00,
2012-07-27 00:05:00,74.8,73.9,30.03,WSW,247,4.0,4.0,97,0.35,,,0.04,VWS V13.01,2012-07-27 05:05:00,
2012-07-27 00:10:00,75.0,74.4,30.03,West,268,2.7,2.7,98,0.39,,,0.12,VWS V13.01,2012-07-27 05:10:00,
2012-07-27 00:15:00,75.1,74.5,30.00,WSW,255,4.0,4.0,98,0.43,,,0.20,VWS V13.01,2012-07-27 05:15:00,
2012-07-27 00:20:00,75.1,74.5,30.00,SW,230,4.0,4.0,98,0.51,,,0.28,VWS V13.01,2012-07-27 05:20:00,
2012-07-27 00:25:00,75.0,74.4,30.00,SW,219,5.8,5.8,98,0.51,,,0.31,VWS V13.01,2012-07-27 05:25:00,
2012-07-27 00:30:00,75.0,74.4,29.97,SW,232,5.4,5.4,98,0.55,,,0.35,VWS V13.01,2012-07-27 05:30:00,
2012-07-27 00:35:00,75.0,74.4,29.97,WSW,245,2.7,2.7,98,0.55,,,0.35,VWS V13.01,2012-07-27 05:35:00,
2012-07-27 00:40:00,75.0,74.4,29.97,SSE,168,0.0,0.0,98,0.55,,,0.39,VWS V13.01,2012-07-27 05:40:00,
2012-07-27 00:45:00,75.0,74.4,29.97,NE,38,2.7,2.7,98,0.51,,,0.39,VWS V13.01,2012-07-27 05:45:00,
2012-07-27 00:50:00,75.0,74.4,29.97,North,349,2.7,3.6,98,0.51,,,0.39,VWS V13.01,2012-07-27 05:50:00,
2012-07-27 00:55:00,75.0,75.0,29.97,NE,38,3.1,3.1,100,0.47,,,0.39,VWS V13.01,2012-07-27 05:55:00,
2012-07-27 01:00:00,74.8,74.8,29.97,NNE,26,3.1,3.1,100,0.39,,,0.39,VWS V13.01,2012-07-27 06:00:00,
2012-07-27 01:05:00,74.8,74.8,29.97,NNE,25,4.9,5.4,100,0.39,,,0.39,VWS V13.01,2012-07-27 06:05:00,
2012-07-27 01:10:00,74.8,74.8,29.97,NNW,331,2.2,2.2,100,0.35,,,0.39,VWS V13.01,2012-07-27 06:10:00,
2012-07-27 01:15:00,74.8,74.8,29.97,WNW,282,0.0,0.0,100,0.24,,,0.39,VWS V13.01,2012-07-27 06:15:00,
2012-07-27 01:20:00,74.8,74.8,29.97,WNW,282,0.0,0.0,100,0.16,,,0.43,VWS V13.01,2012-07-27 06:20:00,
2012-07-27 01:25:00,74.6,74.6,29.97,WNW,282,0.0,0.0,100,0.12,,,0.43,VWS V13.01,2012-07-27 06:25:00,
2012-07-27 01:30:00,74.6,74.6,29.94,WNW,283,0.0,0.0,100,0.08,,,0.43,VWS V13.01,2012-07-27 06:30:00,
2012-07-27 01:35:00,74.6,74.6,29.94,SW,225,0.0,0.0,100,0.08,,,0.43,VWS V13.01,2012-07-27 06:35:00,
2012-07-27 01:40:00,74.6,74.6,29.94,SW,225,0.0,0.0,100,0.08,,,0.43,VWS V13.01,2012-07-27 06:40:00,
2012-07-27 01:45:00,74.6,74.6,29.91,SW,225,0.0,0.0,100,0.04,,,0.43,VWS V13.01,2012-07-27 06:45:00,
2012-07-27 01:50:00,74.6,74.6,29.91,WNW,302,0.0,0.0,100,0.04,,,0.43,VWS V13.01,2012-07-27 06:50:00,
2012-07-27 01:55:00,74.6,74.6,29.91,WSW,249,2.7,2.7,100,0.04,,,0.43,VWS V13.01,2012-07-27 06:55:00,
2012-07-27 02:00:00,74.6,74.6,29.88,West,260,2.2,3.1,100,0.04,,,0.43,VWS V13.01,2012-07-27 07:00:00,
2012-07-27 02:05:00,74.8,74.8,29.88,West,268,0.0,0.0,100,0.04,,,0.43,VWS V13.01,2012-07-27 07:05:00,
2012-07-27 02:10:00,74.4,74.4,29.88,WNW,288,0.0,0.0,100,0.04,,,0.43,VWS V13.01,2012-07-27 07:10:00,
2012-07-27 02:15:00,74.4,74.4,29.88,WNW,288,0.0,0.0,100,0.04,,,0.43,VWS V13.01,2012-07-27 07:15:00,
2012-07-27 02:20:00,74.2,74.2,29.88,West,275,2.2,2.2,100,0.00,,,0.43,VWS V13.01,2012-07-27 07:20:00,
2012-07-27 02:25:00,74.2,74.2,29.88,NW,306,0.0,0.0,100,0.00,,,0.43,VWS V13.01,2012-07-27 07:25:00,
2012-07-27 02:30:00,74.2,74.2,29.88,WNW,286,0.0,0.0,100,0.00,,,0.43,VWS V13.01,2012-07-27 07:30:00,
2012-07-27 02:35:00,74.2,74.2,29.88,WNW,286,0.0,0.0,100,0.00,,,0.43,VWS V13.01,2012-07-27 07:35:00,
2012-07-27 02:40:00,74.4,74.4,29.88,SSE,168,0.0,0.0,100,0.00,,,0.43,VWS V13.01,2012-07-27 07:40:00,
2012-07-27 02:45:00,74.4,74.4,29.88,SSE,166,0.0,0.0,100,0.00,,,0.43,VWS V13.01,2012-07-27 07:45:00,
2012-07-27 02:50:00,74.4,74.4,29.88,SSE,167,0.0,0.0,100,0.00,,,0.43,VWS V13.01,2012-07-27 07:50:00,
2012-07-27 02:55:00,74.4,74.4,29.88,South,171,0.0,0.0,100,0.00,,,0.43,VWS V13.01,2012-07-27 07:55:00,
2012-07-27 03:00:00,74.4,74.4,29.88,South,171,0.0,0.0,100,0.00,,,0.43,VWS V13.01,2012-07-27 08:00:00,
2012-07-27 03:05:00,74.4,74.4,29.88,NE,43,3.1,3.1,100,0.00,,,0.43,VWS V13.01,2012-07-27 08:05:00,
2012-07-27 03:10:00,74.4,74.4,29.88,NE,43,0.0,0.0,100,0.00,,,0.43,VWS V13.01,2012-07-27 08:10:00,
2012-07-27 03:15:00,74.4,74.4,29.88,NE,43,0.0,0.0,100,0.00,,,0.43,VWS V13.01,2012-07-27 08:15:00,
2012-07-27 03:20:00,74.4,74.4,29.88,ESE,112,3.1,3.1,100,0.00,,,0.43,VWS V13.01,2012-07-27 08:20:00,
2012-07-27 03:25:00,74.4,74.4,29.88,SE,136,0.0,0.0,100,0.00,,,0.43,VWS V13.01,2012-07-27 08:25:00,
2012-07-27 03:30:00,74.4,74.4,29.91,SE,136,0.0,0.0,100,0.00,,,0.43,VWS V13.01,2012-07-27 08:30:00,
2012-07-27 03:35:00,74.4,74.4,29.91,SE,136,0.0,0.0,100,0.00,,,0.43,VWS V13.01,2012-07-27 08:35:00,
2012-07-27 03:40:00,74.4,74.4,29.91,SE,136,0.0,0.0,100,0.00,,,0.43,VWS V13.01,2012-07-27 08:40:00,
2012-07-27 03:45:00,74.4,74.4,29.91,SE,136,0.0,0.0,100,0.00,,,0.43,VWS V13.01,2012-07-27 08:45:00,
2012-07-27 03:50:00,74.4,74.4,29.91,SE,136,0.0,0.0,100,0.00,,,0.43,VWS V13.01,2012-07-27 08:50:00,
2012-07-27 03:55:00,74.6,74.6,29.91,SE,136,0.0,0.0,100,0.00,,,0.43,VWS V13.01,2012-07-27 08:55:00,
2012-07-27 04:00:00,74.6,74.6,29.91,ESE,113,0.0,0.0,100,0.00,,,0.43,VWS V13.01,2012-07-27 09:00:00,
2012-07-27 04:05:00,74.6,74.6,29.91,SSE,150,0.0,2.2,100,0.00,,,0.43,VWS V13.01,2012-07-27 09:05:00,
2012-07-27 04:10:00,74.6,74.6,29.91,SSE,150,0.0,0.0,100,0.00,,,0.43,VWS V13.01,2012-07-27 09:10:00,
2012-07-27 04:15:00,74.6,74.6,29.91,SE,133,2.7,2.7,100,0.00,,,0.43,VWS V13.01,2012-07-27 09:15:00,
2012-07-27 04:20:00,74.6,74.6,29.91,SE,138,0.0,0.0,100,0.00,,,0.43,VWS V13.01,2012-07-27 09:20:00,
2012-07-27 04:25:00,74.6,74.6,29.91,SE,138,0.0,0.0,100,0.00,,,0.43,VWS V13.01,2012-07-27 09:25:00,
2012-07-27 04:30:00,74.6,74.6,29.91,SSW,194,0.0,0.0,100,0.00,,,0.43,VWS V13.01,2012-07-27 09:30:00,
2012-07-27 04:35:00,74.6,74.6,29.91,WSW,238,0.0,0.0,100,0.00,,,0.43,VWS V13.01,2012-07-27 09:35:00,
2012-07-27 04:40:00,74.6,74.6,29.91,WSW,238,0.0,0.0,100,0.00,,,0.43,VWS V13.01,2012-07-27 09:40:00,
2012-07-27 04:45:00,74.6,74.6,29.91,SSE,166,2.2,2.7,100,0.00,,,0.43,VWS V13.01,2012-07-27 09:45:00,
2012-07-27 04:50:00,74.8,74.8,29.91,SSE,166,0.0,0.0,100,0.00,,,0.43,VWS V13.01,2012-07-27 09:50:00,
2012-07-27 04:55:00,74.6,74.6,29.91,SSE,157,0.0,0.0,100,0.00,,,0.43,VWS V13.01,2012-07-27 09:55:00,
2012-07-27 05:00:00,74.6,74.6,29.91,SSE,157,0.0,0.0,100,0.00,,,0.43,VWS V13.01,2012-07-27 10:00:00,
2012-07-27 05:05:00,74.6,74.6,29.91,SSE,157,0.0,0.0,100,0.00,,,0.43,VWS V13.01,2012-07-27 10:05:00,
2012-07-27 05:10:00,74.4,74.4,29.91,SSE,157,0.0,0.0,100,0.00,,,0.43,VWS V13.01,2012-07-27 10:10:00,
2012-07-27 05:15:00,74.4,74.4,29.94,SSE,157,0.0,0.0,100,0.00,,,0.43,VWS V13.01,2012-07-27 10:15:00,
2012-07-27 05:20:00,74.4,74.4,29.94,SSE,157,0.0,0.0,100,0.00,,,0.43,VWS V13.01,2012-07-27 10:20:00,
2012-07-27 05:25:00,74.4,74.4,29.94,SSE,157,0.0,0.0,100,0.00,,,0.43,VWS V13.01,2012-07-27 10:25:00,
2012-07-27 05:30:00,74.4,74.4,29.94,SSE,157,0.0,0.0,100,0.00,,,0.43,VWS V13.01,2012-07-27 10:30:00,
2012-07-27 05:35:00,74.4,74.4,29.94,SSE,157,0.0,0.0,100,0.00,,,0.43,VWS V13.01,2012-07-27 10:35:00,
2012-07-27 05:40:00,74.4,74.4,29.94,SSE,157,0.0,0.0,100,0.00,,,0.43,VWS V13.01,2012-07-27 10:40:00,
2012-07-27 05:45:00,74.4,74.4,29.94,SSE,157,0.0,0.0,100,0.00,,,0.43,VWS V13.01,2012-07-27 10:45:00,
2012-07-27 05:50:00,74.6,74.6,29.94,SSE,157,0.0,0.0,100,0.00,,,0.43,VWS V13.01,2012-07-27 10:50:00,
2012-07-27 05:55:00,74.6,74.6,29.94,SSE,157,0.0,0.0,100,0.00,,,0.43,VWS V13.01,2012-07-27 10:55:00,
2012-07-27 05:59:00,74.6,74.6,29.94,SSE,150,0.0,0.0,100,0.00,,,0.43,VWS V13.01,2012-07-27 10:59:00,
2012-07-27 06:04:00,74.6,74.6,29.94,SSE,150,0.0,0.0,100,0.00,,,0.43,VWS V13.01,2012-07-27 11:04:00,
2012-07-27 06:09:00,74.4,74.4,29.94,SSE,150,0.0,0.0,100,0.00,,,0.43,VWS V13.01,2012-07-27 11:09:00,
2012-07-27 06:14:00,74.4,74.4,29.94,SSE,150,0.0,0.0,100,0.00,,,0.43,VWS V13.01,2012-07-27 11:14:00,
2012-07-27 06:19:00,74.4,74.4,29.94,SE,132,0.0,0.0,100,0.00,,,0.43,VWS V13.01,2012-07-27 11:19:00,
2012-07-27 06:24:00,74.2,74.2,29.94,SE,132,0.0,0.0,100,0.00,,,0.43,VWS V13.01,2012-07-27 11:24:00,
2012-07-27 06:29:00,74.2,74.2,29.94,SE,132,0.0,0.0,100,0.00,,,0.43,VWS V13.01,2012-07-27 11:29:00,
2012-07-27 06:34:00,74.2,74.2,29.94,East,89,0.0,0.0,100,0.00,,,0.43,VWS V13.01,2012-07-27 11:34:00,
2012-07-27 06:39:00,74.4,74.4,29.94,East,89,0.0,0.0,100,0.00,,,0.43,VWS V13.01,2012-07-27 11:39:00,
2012-07-27 06:44:00,74.4,74.4,29.97,East,89,0.0,0.0,100,0.00,,,0.43,VWS V13.01,2012-07-27 11:44:00,
2012-07-27 06:49:00,74.4,74.4,29.97,East,89,0.0,0.0,100,0.00,,,0.43,VWS V13.01,2012-07-27 11:49:00,
2012-07-27 06:54:00,74.4,74.4,29.97,East,89,0.0,0.0,100,0.00,,,0.43,VWS V13.01,2012-07-27 11:54:00,
2012-07-27 06:59:00,74.4,74.4,29.97,East,89,0.0,0.0,100,0.00,,,0.43,VWS V13.01,2012-07-27 11:59:00,
2012-07-27 07:04:00,74.4,74.4,29.97,East,89,0.0,0.0,100,0.00,,,0.43,VWS V13.01,2012-07-27 12:04:00,
2012-07-27 07:09:00,74.6,74.6,29.97,East,89,0.0,0.0,100,0.00,,,0.43,VWS V13.01,2012-07-27 12:09:00,
2012-07-27 07:14:00,74.6,74.6,29.97,East,89,0.0,0.0,100,0.00,,,0.43,VWS V13.01,2012-07-27 12:14:00,
2012-07-27 07:19:00,74.6,74.6,29.97,East,101,0.0,0.0,100,0.00,,,0.43,VWS V13.01,2012-07-27 12:19:00,
2012-07-27 07:24:00,74.8,74.8,29.97,NW,317,0.0,0.0,100,0.00,,,0.43,VWS V13.01,2012-07-27 12:24:00,
2012-07-27 07:29:00,75.0,75.0,29.97,North,357,0.0,0.0,100,0.00,,,0.43,VWS V13.01,2012-07-27 12:29:00,
2012-07-27 07:34:00,75.1,75.2,29.97,North,357,0.0,0.0,100,0.00,,,0.43,VWS V13.01,2012-07-27 12:34:00,
2012-07-27 07:39:00,75.3,75.3,29.97,NW,323,0.0,0.0,100,0.00,,,0.43,VWS V13.01,2012-07-27 12:39:00,
2012-07-27 07:44:00,75.5,75.5,29.97,NW,317,0.0,0.0,100,0.00,,,0.43,VWS V13.01,2012-07-27 12:44:00,
2012-07-27 07:49:00,75.5,75.5,29.97,West,262,0.0,0.0,100,0.00,,,0.43,VWS V13.01,2012-07-27 12:49:00,
2012-07-27 07:54:00,75.3,75.3,29.97,WNW,291,0.0,0.0,100,0.00,,,0.43,VWS V13.01,2012-07-27 12:54:00,
2012-07-27 07:59:00,75.5,75.5,29.97,WNW,291,0.0,0.0,100,0.00,,,0.43,VWS V13.01,2012-07-27 12:59:00,
2012-07-27 08:04:00,75.7,75.7,29.97,SW,236,0.0,0.0,100,0.00,,,0.43,VWS V13.01,2012-07-27 13:04:00,
2012-07-27 08:09:00,75.3,75.3,29.97,WSW,243,0.0,0.0,100,0.00,,,0.43,VWS V13.01,2012-07-27 13:09:00,
2012-07-27 08:14:00,75.7,75.7,29.97,WSW,245,3.1,3.1,100,0.00,,,0.43,VWS V13.01,2012-07-27 13:14:00,
2012-07-27 08:19:00,75.9,75.9,29.97,SW,236,0.0,0.0,100,0.00,,,0.43,VWS V13.01,2012-07-27 13:19:00,
2012-07-27 08:24:00,76.0,76.1,29.97,SW,236,0.0,0.0,100,0.00,,,0.43,VWS V13.01,2012-07-27 13:24:00,
2012-07-27 08:29:00,76.2,76.2,29.97,WSW,240,0.0,0.0,100,0.00,,,0.43,VWS V13.01,2012-07-27 13:29:00,
2012-07-27 08:34:00,76.2,76.2,29.97,West,265,0.0,0.0,100,0.00,,,0.43,VWS V13.01,2012-07-27 13:34:00,
2012-07-27 08:39:00,76.8,75.8,29.97,SW,228,2.2,3.1,97,0.00,,,0.43,VWS V13.01,2012-07-27 13:39:00,
2012-07-27 08:44:00,76.6,74.1,30.00,WSW,246,2.7,3.6,92,0.00,,,0.43,VWS V13.01,2012-07-27 13:44:00,
2012-07-27 08:49:00,76.8,71.6,30.00,WNW,295,2.2,3.6,84,0.00,,,0.43,VWS V13.01,2012-07-27 13:49:00,
2012-07-27 08:54:00,77.3,71.4,30.00,West,267,0.0,0.0,82,0.00,,,0.43,VWS V13.01,2012-07-27 13:54:00,
2012-07-27 08:59:00,77.8,73.0,30.00,NW,313,2.7,2.7,85,0.00,,,0.43,VWS V13.01,2012-07-27 13:59:00,
2012-07-27 09:04:00,78.0,71.3,30.00,SW,220,0.0,0.0,80,0.00,,,0.43,VWS V13.01,2012-07-27 14:04:00,
2012-07-27 09:09:00,78.4,71.3,30.00,WSW,252,0.0,0.0,79,0.00,,,0.43,VWS V13.01,2012-07-27 14:09:00,
2012-07-27 09:14:00,78.7,71.7,30.00,SSE,147,2.2,2.2,79,0.00,,,0.43,VWS V13.01,2012-07-27 14:14:00,
2012-07-27 09:19:00,78.9,71.5,30.00,SSE,147,2.7,3.1,78,0.00,,,0.43,VWS V13.01,2012-07-27 14:19:00,
2012-07-27 09:24:00,79.1,71.3,30.00,SW,236,5.4,5.4,77,0.00,,,0.43,VWS V13.01,2012-07-27 14:24:00,
2012-07-27 09:29:00,79.5,70.8,30.00,WSW,250,3.6,3.6,75,0.00,,,0.43,VWS V13.01,2012-07-27 14:29:00,
2012-07-27 09:34:00,79.8,70.8,30.00,SSW,198,4.0,4.0,74,0.00,,,0.43,VWS V13.01,2012-07-27 14:34:00,
2012-07-27 09:39:00,80.0,70.6,30.00,SSE,154,2.7,2.7,73,0.00,,,0.43,VWS V13.01,2012-07-27 14:39:00,
2012-07-27 09:44:00,80.0,70.2,30.00,SSE,165,3.6,4.0,72,0.00,,,0.43,VWS V13.01,2012-07-27 14:44:00,
2012-07-27 09:49:00,80.2,70.3,30.00,SSE,165,5.4,5.4,72,0.00,,,0.43,VWS V13.01,2012-07-27 14:49:00,
2012-07-27 09:54:00,80.0,70.2,30.00,SW,230,3.6,3.6,72,0.00,,,0.43,VWS V13.01,2012-07-27 14:54:00,
2012-07-27 09:59:00,80.4,70.1,30.00,SSW,193,2.7,2.7,71,0.00,,,0.43,VWS V13.01,2012-07-27 14:59:00,
2012-07-27 10:04:00,80.7,69.6,30.00,West,268,0.0,0.0,69,0.00,,,0.43,VWS V13.01,2012-07-27 15:04:00,
2012-07-27 10:09:00,81.3,70.1,30.00,West,267,5.4,5.4,69,0.00,,,0.43,VWS V13.01,2012-07-27 15:09:00,
2012-07-27 10:14:00,81.6,69.2,30.00,SW,223,3.6,3.6,66,0.00,,,0.43,VWS V13.01,2012-07-27 15:14:00,
2012-07-27 10:19:00,81.6,68.7,30.00,West,271,4.9,4.9,65,0.00,,,0.43,VWS V13.01,2012-07-27 15:19:00,
2012-07-27 10:24:00,82.3,68.5,30.00,WSW,240,2.7,4.5,63,0.00,,,0.43,VWS V13.01,2012-07-27 15:24:00,
2012-07-27 10:29:00,82.7,69.3,30.00,South,180,3.6,4.0,64,0.00,,,0.43,VWS V13.01,2012-07-27 15:29:00,
2012-07-27 10:34:00,83.1,69.2,30.00,SSE,154,4.0,5.4,63,0.00,,,0.43,VWS V13.01,2012-07-27 15:34:00,
2012-07-27 10:39:00,83.4,70.0,30.00,West,263,2.2,3.6,64,0.00,,,0.43,VWS V13.01,2012-07-27 15:39:00,
2012-07-27 10:44:00,83.8,68.4,30.00,West,260,4.0,4.9,60,0.00,,,0.43,VWS V13.01,2012-07-27 15:44:00,
2012-07-27 10:49:00,84.1,68.8,30.00,WSW,241,4.0,5.4,60,0.00,,,0.43,VWS V13.01,2012-07-27 15:49:00,
2012-07-27 10:54:00,84.5,68.1,30.00,South,186,4.0,4.0,58,0.00,,,0.43,VWS V13.01,2012-07-27 15:54:00,
2012-07-27 10:59:00,84.7,68.3,30.00,WSW,245,4.0,4.0,58,0.00,,,0.43,VWS V13.01,2012-07-27 15:59:00,
2012-07-27 11:04:00,84.9,68.4,30.00,West,260,4.0,5.4,58,0.00,,,0.43,VWS V13.01,2012-07-27 16:04:00,
2012-07-27 11:09:00,85.2,68.3,30.00,WSW,245,2.2,2.2,57,0.00,,,0.43,VWS V13.01,2012-07-27 16:09:00,
2012-07-27 11:14:00,85.8,68.3,30.00,SSW,199,3.6,3.6,56,0.00,,,0.43,VWS V13.01,2012-07-27 16:14:00,
2012-07-27 11:19:00,86.1,68.1,30.00,SSE,152,4.0,5.4,55,0.00,,,0.43,VWS V13.01,2012-07-27 16:19:00,
2012-07-27 11:24:00,86.7,68.0,30.00,SSW,211,4.0,4.0,54,0.00,,,0.43,VWS V13.01,2012-07-27 16:24:00,
2012-07-27 11:29:00,87.2,68.0,30.00,West,264,3.6,3.6,53,0.00,,,0.43,VWS V13.01,2012-07-27 16:29:00,
2012-07-27 11:34:00,87.6,68.3,30.00,SSE,167,4.0,4.0,53,0.00,,,0.43,VWS V13.01,2012-07-27 16:34:00,
2012-07-27 11:39:00,87.7,67.4,30.00,SSW,210,4.0,5.4,51,0.00,,,0.43,VWS V13.01,2012-07-27 16:39:00,
2012-07-27 11:44:00,88.1,67.7,30.00,SW,222,3.1,3.1,51,0.00,,,0.43,VWS V13.01,2012-07-27 16:44:00,
2012-07-27 11:49:00,88.5,68.0,30.00,SSW,196,5.8,5.8,51,0.00,,,0.43,VWS V13.01,2012-07-27 16:49:00,
2012-07-27 11:54:00,89.0,68.0,30.00,South,169,3.6,4.9,50,0.00,,,0.43,VWS V13.01,2012-07-27 16:54:00,
2012-07-27 11:59:00,89.4,67.1,30.00,West,281,0.0,2.2,48,0.00,,,0.43,VWS V13.01,2012-07-27 16:59:00,
2012-07-27 12:04:00,89.9,68.8,30.00,SSW,212,5.4,5.4,50,0.00,,,0.43,VWS V13.01,2012-07-27 17:04:00,
2012-07-27 12:09:00,89.7,67.4,30.00,SSE,147,3.6,3.6,48,0.00,,,0.43,VWS V13.01,2012-07-27 17:09:00,
2012-07-27 12:14:00,89.7,67.4,30.00,SSW,211,3.6,5.8,48,0.00,,,0.43,VWS V13.01,2012-07-27 17:14:00,
2012-07-27 12:19:00,89.9,66.4,29.97,SW,220,4.0,6.3,46,0.00,,,0.43,VWS V13.01,2012-07-27 17:19:00,
2012-07-27 12:24:00,90.4,66.9,29.97,SW,217,5.8,5.8,46,0.00,,,0.43,VWS V13.01,2012-07-27 17:24:00,
2012-07-27 12:29:00,91.0,65.4,29.97,WSW,243,5.4,6.3,43,0.00,,,0.43,VWS V13.01,2012-07-27 17:29:00,
2012-07-27 12:34:00,91.2,65.6,29.97,West,261,7.2,8.1,43,0.00,,,0.43,VWS V13.01,2012-07-27 17:34:00,
2012-07-27 12:39:00,91.7,64.7,29.97,South,190,4.9,7.2,41,0.00,,,0.43,VWS V13.01,2012-07-27 17:39:00,
2012-07-27 12:44:00,92.2,65.8,29.97,SE,143,2.2,2.2,42,0.00,,,0.43,VWS V13.01,2012-07-27 17:44:00,
2012-07-27 12:49:00,92.8,64.9,29.97,South,176,5.8,5.8,40,0.00,,,0.43,VWS V13.01,2012-07-27 17:49:00,
2012-07-27 12:54:00,93.1,65.3,29.97,SSW,192,4.0,4.0,40,0.00,,,0.43,VWS V13.01,2012-07-27 17:54:00,
2012-07-27 12:59:00,93.1,64.5,29.97,ENE,77,4.0,5.8,39,0.00,,,0.43,VWS V13.01,2012-07-27 17:59:00,
2012-07-27 13:04:00,93.5,64.8,29.97,WSW,250,5.8,5.8,39,0.00,,,0.43,VWS V13.01,2012-07-27 18:04:00,
2012-07-27 13:09:00,94.4,65.7,29.97,SSE,155,2.7,4.9,39,0.00,,,0.43,VWS V13.01,2012-07-27 18:09:00,
2012-07-27 13:14:00,94.8,64.5,29.97,SW,214,3.6,6.3,37,0.00,,,0.43,VWS V13.01,2012-07-27 18:14:00,
2012-07-27 13:19:00,93.7,64.3,29.97,WSW,256,4.9,8.3,38,0.00,,,0.43,VWS V13.01,2012-07-27 18:19:00,
2012-07-27 13:24:00,93.5,64.1,29.97,South,174,3.6,3.6,38,0.00,,,0.43,VWS V13.01,2012-07-27 18:24:00,
2012-07-27 13:29:00,94.6,64.3,29.97,NE,55,2.7,2.7,37,0.00,,,0.43,VWS V13.01,2012-07-27 18:29:00,
2012-07-27 13:34:00,94.9,64.6,29.97,WSW,238,3.6,4.0,37,0.00,,,0.43,VWS V13.01,2012-07-27 18:34:00,
2012-07-27 13:39:00,95.1,64.8,29.97,South,180,6.3,6.3,37,0.00,,,0.43,VWS V13.01,2012-07-27 18:39:00,
2012-07-27 13:44:00,95.7,65.2,29.97,SSW,203,4.0,6.3,37,0.00,,,0.43,VWS V13.01,2012-07-27 18:44:00,
2012-07-27 13:49:00,95.7,65.2,29.97,SSE,163,5.8,5.8,37,0.00,,,0.43,VWS V13.01,2012-07-27 18:49:00,
2012-07-27 13:54:00,95.8,64.6,29.97,South,181,7.6,8.7,36,0.00,,,0.43,VWS V13.01,2012-07-27 18:54:00,
2012-07-27 13:59:00,95.5,64.3,29.97,ESE,120,4.0,5.4,36,0.00,,,0.43,VWS V13.01,2012-07-27 18:59:00,
2012-07-27 14:04:00,95.7,65.2,29.97,South,182,2.7,4.0,37,0.00,,,0.43,VWS V13.01,2012-07-27 19:04:00,
2012-07-27 14:09:00,96.6,66.0,29.97,South,169,6.3,6.3,37,0.00,,,0.43,VWS V13.01,2012-07-27 19:09:00,
2012-07-27 14:14:00,96.2,65.7,29.97,ESE,121,2.7,8.7,37,0.00,,,0.43,VWS V13.01,2012-07-27 19:14:00,
2012-07-27 14:19:00,96.0,65.6,29.97,SSE,166,6.3,7.6,37,0.00,,,0.43,VWS V13.01,2012-07-27 19:19:00,
2012-07-27 14:24:00,96.0,65.6,29.97,ESE,113,3.6,4.0,37,0.00,,,0.43,VWS V13.01,2012-07-27 19:24:00,
2012-07-27 14:29:00,96.0,65.6,29.97,South,179,6.3,8.7,37,0.00,,,0.43,VWS V13.01,2012-07-27 19:29:00,
2012-07-27 14:34:00,95.8,65.4,29.97,SE,143,5.4,5.8,37,0.00,,,0.43,VWS V13.01,2012-07-27 19:34:00,
2012-07-27 14:39:00,96.0,65.6,29.97,ESE,119,2.2,6.3,37,0.00,,,0.43,VWS V13.01,2012-07-27 19:39:00,
2012-07-27 14:44:00,96.6,64.4,29.97,SE,127,4.0,8.1,35,0.00,,,0.43,VWS V13.01,2012-07-27 19:44:00,
2012-07-27 14:49:00,96.7,64.6,29.97,SSE,152,5.4,7.6,35,0.00,,,0.43,VWS V13.01,2012-07-27 19:49:00,
2012-07-27 14:54:00,96.7,65.4,29.97,SE,139,5.4,7.6,36,0.00,,,0.43,VWS V13.01,2012-07-27 19:54:00,
2012-07-27 14:59:00,96.7,65.4,29.97,ESE,118,4.0,5.8,36,0.00,,,0.43,VWS V13.01,2012-07-27 19:59:00,
2012-07-27 15:04:00,96.9,64.8,29.94,SSE,167,6.3,8.3,35,0.00,,,0.43,VWS V13.01,2012-07-27 20:04:00,
2012-07-27 15:09:00,96.9,63.9,29.94,SSW,200,5.8,11.0,34,0.00,,,0.43,VWS V13.01,2012-07-27 20:09:00,
2012-07-27 15:14:00,96.9,65.6,29.94,South,186,4.0,4.9,36,0.00,,,0.43,VWS V13.01,2012-07-27 20:14:00,
2012-07-27 15:19:00,97.6,64.6,29.94,SW,231,6.3,8.1,34,0.00,,,0.43,VWS V13.01,2012-07-27 20:19:00,
2012-07-27 15:23:00,97.8,63.9,29.94,East,98,5.8,6.3,33,0.00,,,0.43,VWS V13.01,2012-07-27 20:23:00,
2012-07-27 15:28:00,97.6,63.7,29.94,WSW,237,8.1,8.7,33,0.00,,,0.43,VWS V13.01,2012-07-27 20:28:00,
2012-07-27 15:33:00,97.8,63.9,29.94,South,182,7.2,8.3,33,0.00,,,0.43,VWS V13.01,2012-07-27 20:33:00,
2012-07-27 15:38:00,97.8,63.9,29.94,SSE,167,8.1,8.1,33,0.00,,,0.43,VWS V13.01,2012-07-27 20:38:00,
2012-07-27 15:43:00,97.8,63.9,29.94,South,172,5.4,5.8,33,0.00,,,0.43,VWS V13.01,2012-07-27 20:43:00,
2012-07-27 15:48:00,98.4,64.3,29.94,South,191,5.4,5.8,33,0.00,,,0.43,VWS V13.01,2012-07-27 20:48:00,
2012-07-27 15:53:00,98.7,63.8,29.94,SSW,193,5.4,8.3,32,0.00,,,0.43,VWS V13.01,2012-07-27 20:53:00,
2012-07-27 15:58:00,98.9,63.0,29.94,WSW,254,5.4,6.3,31,0.00,,,0.43,VWS V13.01,2012-07-27 20:58:00,
2012-07-27 16:03:00,98.9,63.9,29.94,WSW,252,4.9,5.8,32,0.00,,,0.43,VWS V13.01,2012-07-27 21:03:00,
2012-07-27 16:08:00,98.9,63.0,29.94,South,186,5.4,10.1,31,0.00,,,0.43,VWS V13.01,2012-07-27 21:08:00,
2012-07-27 16:13:00,99.1,63.2,29.94,WSW,241,5.4,7.6,31,0.00,,,0.43,VWS V13.01,2012-07-27 21:13:00,
2012-07-27 16:18:00,99.4,63.5,29.94,SSW,210,8.1,8.1,31,0.00,,,0.43,VWS V13.01,2012-07-27 21:18:00,
2012-07-27 16:23:00,99.4,63.5,29.94,SSW,205,4.0,4.0,31,0.00,,,0.43,VWS V13.01,2012-07-27 21:23:00,
2012-07-27 16:28:00,99.6,62.7,29.94,SSW,199,3.6,6.3,30,0.00,,,0.43,VWS V13.01,2012-07-27 21:28:00,
2012-07-27 16:33:00,99.6,62.7,29.94,WSW,238,6.3,6.3,30,0.00,,,0.43,VWS V13.01,2012-07-27 21:33:00,
2012-07-27 16:38:00,99.3,62.4,29.94,South,178,5.4,5.8,30,0.00,,,0.43,VWS V13.01,2012-07-27 21:38:00,
2012-07-27 16:43:00,98.7,61.9,29.94,WSW,258,4.9,5.4,30,0.00,,,0.43,VWS V13.01,2012-07-27 21:43:00,
2012-07-27 16:48:00,98.7,61.9,29.94,WSW,241,7.6,7.6,30,0.00,,,0.43,VWS V13.01,2012-07-27 21:48:00,
2012-07-27 16:53:00,98.4,62.5,29.94,WSW,247,5.4,5.4,31,0.00,,,0.43,VWS V13.01,2012-07-27 21:53:00,
2012-07-27 16:58:00,98.0,62.2,29.94,SW,236,6.3,8.3,31,0.00,,,0.43,VWS V13.01,2012-07-27 21:58:00,
2012-07-27 17:03:00,97.3,62.5,29.94,WSW,256,5.8,6.3,32,0.00,,,0.43,VWS V13.01,2012-07-27 22:03:00,
2012-07-27 17:08:00,97.8,63.0,29.94,WSW,248,5.8,5.8,32,0.00,,,0.43,VWS V13.01,2012-07-27 22:08:00,
2012-07-27 17:13:00,98.5,62.7,29.94,SW,216,5.4,5.8,31,0.00,,,0.43,VWS V13.01,2012-07-27 22:13:00,
2012-07-27 17:18:00,99.3,63.3,29.91,SW,225,5.4,5.4,31,0.00,,,0.43,VWS V13.01,2012-07-27 22:18:00,
2012-07-27 17:23:00,99.8,62.9,29.91,SSW,195,3.1,4.9,30,0.00,,,0.43,VWS V13.01,2012-07-27 22:23:00,
2012-07-27 17:28:00,99.6,61.7,29.91,WSW,244,2.7,3.1,29,0.00,,,0.43,VWS V13.01,2012-07-27 22:28:00,
2012-07-27 17:33:00,100.0,62.0,29.91,SSW,206,4.9,4.9,29,0.00,,,0.43,VWS V13.01,2012-07-27 22:33:00,
2012-07-27 17:38:00,100.2,62.2,29.91,SSW,206,6.3,11.0,29,0.00,,,0.43,VWS V13.01,2012-07-27 22:38:00,
2012-07-27 17:43:00,100.2,62.2,29.91,SSW,192,7.6,8.1,29,0.00,,,0.43,VWS V13.01,2012-07-27 22:43:00,
2012-07-27 17:48:00,100.3,62.4,29.91,South,179,4.0,6.3,29,0.00,,,0.43,VWS V13.01,2012-07-27 22:48:00,
2012-07-27 17:53:00,100.2,62.2,29.91,SW,228,3.1,7.2,29,0.00,,,0.43,VWS V13.01,2012-07-27 22:53:00,
2012-07-27 17:58:00,100.3,62.4,29.91,WSW,248,9.6,9.6,29,0.00,,,0.43,VWS V13.01,2012-07-27 22:58:00,
2012-07-27 18:03:00,100.5,62.5,29.91,SSW,204,5.8,10.1,29,0.00,,,0.43,VWS V13.01,2012-07-27 23:03:00,
2012-07-27 18:08:00,100.0,62.0,29.91,SW,234,6.3,10.1,29,0.00,,,0.43,VWS V13.01,2012-07-27 23:08:00,
2012-07-27 18:13:00,100.0,62.0,29.91,WSW,238,5.4,5.4,29,0.00,,,0.43,VWS V13.01,2012-07-27 23:13:00,
2012-07-27 18:18:00,100.0,62.0,29.91,SSW,193,5.8,8.7,29,0.00,,,0.43,VWS V13.01,2012-07-27 23:18:00,
2012-07-27 18:23:00,99.6,62.7,29.91,SW,221,4.0,6.3,30,0.00,,,0.43,VWS V13.01,2012-07-27 23:23:00,
2012-07-27 18:28:00,99.4,62.5,29.91,SSE,164,5.4,7.6,30,0.00,,,0.43,VWS V13.01,2012-07-27 23:28:00,
2012-07-27 18:33:00,99.1,62.2,29.91,SW,221,6.3,8.1,30,0.00,,,0.43,VWS V13.01,2012-07-27 23:33:00,
2012-07-27 18:38:00,99.1,62.2,29.91,SSW,201,6.3,6.3,30,0.00,,,0.43,VWS V13.01,2012-07-27 23:38:00,
2012-07-27 18:43:00,98.9,63.0,29.91,SW,218,4.0,8.7,31,0.00,,,0.43,VWS V13.01,2012-07-27 23:43:00,
2012-07-27 18:48:00,99.1,62.2,29.91,SSW,213,6.3,6.3,30,0.00,,,0.43,VWS V13.01,2012-07-27 23:48:00,
2012-07-27 18:53:00,99.3,62.4,29.91,SW,231,5.8,6.3,30,0.00,,,0.43,VWS V13.01,2012-07-27 23:53:00,
2012-07-27 18:58:00,99.1,62.2,29.91,South,188,4.0,4.0,30,0.00,,,0.43,VWS V13.01,2012-07-27 23:58:00,
2012-07-27 19:03:00,99.1,62.2,29.91,SSW,201,4.0,8.3,30,0.00,,,0.43,VWS V13.01,2012-07-28 00:03:00,
2012-07-27 19:08:00,98.9,62.1,29.91,WSW,246,5.4,5.4,30,0.00,,,0.43,VWS V13.01,2012-07-28 00:08:00,
2012-07-27 19:13:00,98.9,62.1,29.91,SW,226,7.6,7.6,30,0.00,,,0.43,VWS V13.01,2012-07-28 00:13:00,
2012-07-27 19:18:00,98.5,61.8,29.91,SW,236,5.4,8.7,30,0.00,,,0.43,VWS V13.01,2012-07-28 00:18:00,
2012-07-27 19:23:00,98.5,62.7,29.91,SW,233,3.1,3.1,31,0.00,,,0.43,VWS V13.01,2012-07-28 00:23:00,
2012-07-27 19:28:00,98.5,61.8,29.91,South,169,3.1,4.0,30,0.00,,,0.43,VWS V13.01,2012-07-28 00:28:00,
2012-07-27 19:33:00,98.4,62.5,29.91,West,266,6.3,6.3,31,0.00,,,0.43,VWS V13.01,2012-07-28 00:33:00,
2012-07-27 19:38:00,98.2,61.5,29.91,WSW,249,3.6,4.0,30,0.00,,,0.43,VWS V13.01,2012-07-28 00:38:00,
2012-07-27 19:43:00,97.8,62.1,29.91,WSW,245,2.7,4.9,31,0.00,,,0.43,VWS V13.01,2012-07-28 00:43:00,
2012-07-27 19:48:00,97.8,62.1,29.91,West,260,5.4,5.4,31,0.00,,,0.43,VWS V13.01,2012-07-28 00:48:00,
2012-07-27 19:53:00,97.5,61.8,29.91,West,266,4.0,5.4,31,0.00,,,0.43,VWS V13.01,2012-07-28 00:53:00,
2012-07-27 19:58:00,97.1,62.4,29.91,SW,216,4.0,4.0,32,0.00,,,0.43,VWS V13.01,2012-07-28 00:58:00,
2012-07-27 20:03:00,96.7,62.0,29.94,WSW,242,2.7,2.7,32,0.00,,,0.43,VWS V13.01,2012-07-28 01:03:00,
2012-07-27 20:08:00,96.4,62.6,29.94,SW,224,3.1,3.6,33,0.00,,,0.43,VWS V13.01,2012-07-28 01:08:00,
2012-07-27 20:13:00,96.0,63.2,29.94,SW,235,3.1,3.6,34,0.00,,,0.43,VWS V13.01,2012-07-28 01:13:00,
2012-07-27 20:18:00,95.5,62.7,29.94,SW,228,2.2,2.7,34,0.00,,,0.43,VWS V13.01,2012-07-28 01:18:00,
2012-07-27 20:23:00,95.3,63.3,29.94,SSW,207,0.0,0.0,35,0.00,,,0.43,VWS V13.01,2012-07-28 01:23:00,
2012-07-27 20:28:00,94.9,64.6,29.94,SSW,208,0.0,0.0,37,0.00,,,0.43,VWS V13.01,2012-07-28 01:28:00,
2012-07-27 20:33:00,94.8,64.5,29.94,West,268,0.0,0.0,37,0.00,,,0.43,VWS V13.01,2012-07-28 01:33:00,
2012-07-27 20:38:00,94.6,64.3,29.94,WSW,248,0.0,0.0,37,0.00,,,0.43,VWS V13.01,2012-07-28 01:38:00,
2012-07-27 20:43:00,93.7,64.3,29.94,WSW,248,0.0,0.0,38,0.00,,,0.43,VWS V13.01,2012-07-28 01:43:00,
2012-07-27 20:48:00,93.1,63.8,29.94,WSW,247,0.0,0.0,38,0.00,,,0.43,VWS V13.01,2012-07-28 01:48:00,
2012-07-27 20:53:00,92.2,64.4,29.94,SE,140,0.0,0.0,40,0.00,,,0.43,VWS V13.01,2012-07-28 01:53:00,
2012-07-27 20:58:00,91.7,64.0,29.94,SE,140,0.0,0.0,40,0.00,,,0.43,VWS V13.01,2012-07-28 01:58:00,
2012-07-27 21:03:00,91.3,63.7,29.94,SE,140,0.0,0.0,40,0.00,,,0.43,VWS V13.01,2012-07-28 02:03:00,
2012-07-27 21:08:00,91.3,65.1,29.94,West,279,0.0,0.0,42,0.00,,,0.43,VWS V13.01,2012-07-28 02:08:00,
2012-07-27 21:13:00,91.2,65.6,29.94,West,279,0.0,0.0,43,0.00,,,0.43,VWS V13.01,2012-07-28 02:13:00,
2012-07-27 21:18:00,90.6,66.4,29.94,West,279,0.0,0.0,45,0.00,,,0.43,VWS V13.01,2012-07-28 02:18:00,
2012-07-27 21:23:00,89.7,68.0,29.94,West,279,0.0,0.0,49,0.00,,,0.43,VWS V13.01,2012-07-28 02:23:00,
2012-07-27 21:28:00,89.2,67.5,29.94,West,279,0.0,0.0,49,0.00,,,0.43,VWS V13.01,2012-07-28 02:28:00,
2012-07-27 21:33:00,88.8,67.8,29.94,West,279,0.0,0.0,50,0.00,,,0.43,VWS V13.01,2012-07-28 02:33:00,
2012-07-27 21:38:00,88.5,66.9,29.94,West,279,0.0,0.0,49,0.00,,,0.43,VWS V13.01,2012-07-28 02:38:00,
2012-07-27 21:43:00,88.5,67.5,29.94,West,279,0.0,0.0,50,0.00,,,0.43,VWS V13.01,2012-07-28 02:43:00,
2012-07-27 21:48:00,88.5,68.0,29.97,West,279,0.0,0.0,51,0.00,,,0.43,VWS V13.01,2012-07-28 02:48:00,
2012-07-27 21:53:00,88.5,68.6,29.97,West,279,0.0,0.0,52,0.00,,,0.43,VWS V13.01,2012-07-28 02:53:00,
2012-07-27 21:58:00,88.1,67.7,29.97,West,279,0.0,0.0,51,0.00,,,0.43,VWS V13.01,2012-07-28 02:58:00,
2012-07-27 22:03:00,88.1,67.7,29.97,West,279,0.0,0.0,51,0.00,,,0.43,VWS V13.01,2012-07-28 03:03:00,
2012-07-27 22:08:00,87.9,68.7,29.97,West,279,0.0,0.0,53,0.00,,,0.43,VWS V13.01,2012-07-28 03:08:00,
2012-07-27 22:13:00,87.4,68.7,29.97,West,279,0.0,0.0,54,0.00,,,0.43,VWS V13.01,2012-07-28 03:13:00,
2012-07-27 22:18:00,86.7,68.6,29.97,West,279,0.0,0.0,55,0.00,,,0.43,VWS V13.01,2012-07-28 03:18:00,
2012-07-27 22:23:00,86.3,67.7,29.97,West,279,0.0,0.0,54,0.00,,,0.43,VWS V13.01,2012-07-28 03:23:00,
2012-07-27 22:28:00,85.9,68.4,29.97,West,279,0.0,0.0,56,0.00,,,0.43,VWS V13.01,2012-07-28 03:28:00,
2012-07-27 22:33:00,85.6,68.1,29.97,West,279,0.0,0.0,56,0.00,,,0.43,VWS V13.01,2012-07-28 03:33:00,
2012-07-27 22:38:00,85.2,68.3,29.97,West,279,0.0,0.0,57,0.00,,,0.43,VWS V13.01,2012-07-28 03:38:00,
2012-07-27 22:43:00,85.0,69.1,29.97,West,279,0.0,0.0,59,0.00,,,0.43,VWS V13.01,2012-07-28 03:43:00,
2012-07-27 22:48:00,85.0,68.6,29.97,West,279,0.0,0.0,58,0.00,,,0.43,VWS V13.01,2012-07-28 03:48:00,
2012-07-27 22:53:00,84.9,68.9,29.97,West,279,0.0,0.0,59,0.00,,,0.43,VWS V13.01,2012-07-28 03:53:00,
2012-07-27 22:58:00,84.7,69.8,29.97,West,279,0.0,0.0,61,0.00,,,0.43,VWS V13.01,2012-07-28 03:58:00,
2012-07-27 23:00:00,84.7,70.2,29.97,West,279,0.0,0.0,62,0.00,,,0.43,VWS V13.01,2012-07-28 04:00:00,
2012-07-27 23:05:00,84.7,71.6,29.97,West,279,0.0,0.0,65,0.00,,,0.43,VWS V13.01,2012-07-28 04:05:00,
2012-07-27 23:10:00,84.7,70.7,29.97,West,279,0.0,0.0,63,0.00,,,0.43,VWS V13.01,2012-07-28 04:10:00,
2012-07-27 23:15:00,84.5,70.5,29.97,West,279,0.0,0.0,63,0.00,,,0.43,VWS V13.01,2012-07-28 04:15:00,
2012-07-27 23:20:00,84.3,70.4,29.97,West,279,0.0,0.0,63,0.00,,,0.43,VWS V13.01,2012-07-28 04:20:00,
2012-07-27 23:25:00,84.1,71.6,29.97,West,279,0.0,0.0,66,0.00,,,0.43,VWS V13.01,2012-07-28 04:25:00,
2012-07-27 23:30:00,83.6,71.5,29.97,NE,34,0.0,0.0,67,0.00,,,0.43,VWS V13.01,2012-07-28 04:30:00,
2012-07-27 23:35:00,83.2,72.4,29.97,NE,34,0.0,0.0,70,0.00,,,0.43,VWS V13.01,2012-07-28 04:35:00,
2012-07-27 23:40:00,83.1,73.1,29.97,NE,34,0.0,0.0,72,0.00,,,0.43,VWS V13.01,2012-07-28 04:40:00,
2012-07-27 23:45:00,82.7,73.2,29.97,NE,34,0.0,0.0,73,0.00,,,0.43,VWS V13.01,2012-07-28 04:45:00,
2012-07-27 23:50:00,82.3,72.8,29.97,NE,34,0.0,0.0,73,0.00,,,0.43,VWS V13.01,2012-07-28 04:50:00,
2012-07-27 23:55:00,82.2,73.1,29.97,NE,34,0.0,0.0,74,0.00,,,0.43,VWS V13.01,2012-07-28 04:55:00,